sensor_id;sensor_type;location;lat;lon;timestamp;pressure;altitude;pressure_sealevel;temperature;humidity
56038;BME280;41907;47.848;9.000;2023-11-21T00:00:49;95305.66;;;7.55;100.00
56038;BME280;41907;47.848;9.000;2023-11-21T00:03:14;95305.66;;;7.55;100.00
56038;BME280;41907;47.848;9.000;2023-11-21T00:05:41;95303.47;;;7.57;100.00
56038;BME280;41907;47.848;9.000;2023-11-21T00:08:07;95301.00;;;7.60;100.00
56038;BME280;41907;47.848;9.000;2023-11-21T00:10:33;95297.00;;;7.63;100.00
56038;BME280;41907;47.848;9.000;2023-11-21T00:12:59;95303.09;;;7.63;100.00
56038;BME280;41907;47.848;9.000;2023-11-21T00:15:24;95291.47;;;7.59;100.00
56038;BME280;41907;47.848;9.000;2023-11-21T00:17:49;95296.38;;;7.66;100.00
56038;BME280;41907;47.848;9.000;2023-11-21T00:20:15;95300.09;;;7.65;100.00
56038;BME280;41907;47.848;9.000;2023-11-21T00:22:41;95297.69;;;7.55;100.00
56038;BME280;41907;47.848;9.000;2023-11-21T00:25:07;95295.72;;;7.60;100.00
56038;BME280;41907;47.848;9.000;2023-11-21T00:27:34;95299.56;;;7.54;100.00
56038;BME280;41907;47.848;9.000;2023-11-21T00:30:00;95288.34;;;7.57;100.00
56038;BME280;41907;47.848;9.000;2023-11-21T00:32:25;95281.66;;;7.60;100.00
56038;BME280;41907;47.848;9.000;2023-11-21T00:34:51;95283.81;;;7.58;100.00
56038;BME280;41907;47.848;9.000;2023-11-21T00:37:16;95283.03;;;7.57;100.00
56038;BME280;41907;47.848;9.000;2023-11-21T00:39:41;95279.59;;;7.57;100.00
56038;BME280;41907;47.848;9.000;2023-11-21T00:42:07;95273.91;;;7.50;100.00
56038;BME280;41907;47.848;9.000;2023-11-21T00:44:33;95271.47;;;7.53;100.00
56038;BME280;41907;47.848;9.000;2023-11-21T00:46:59;95279.00;;;7.60;100.00
56038;BME280;41907;47.848;9.000;2023-11-21T00:49:24;95272.91;;;7.59;100.00
56038;BME280;41907;47.848;9.000;2023-11-21T00:51:50;95265.59;;;7.65;100.00
56038;BME280;41907;47.848;9.000;2023-11-21T00:54:15;95265.81;;;7.68;100.00
56038;BME280;41907;47.848;9.000;2023-11-21T00:56:42;95270.53;;;7.71;100.00
56038;BME280;41907;47.848;9.000;2023-11-21T00:59:08;95262.06;;;7.69;100.00
56038;BME280;41907;47.848;9.000;2023-11-21T01:01:33;95261.31;;;7.55;100.00
56038;BME280;41907;47.848;9.000;2023-11-21T01:03:58;95273.09;;;7.63;100.00
56038;BME280;41907;47.848;9.000;2023-11-21T01:06:24;95268.66;;;7.72;100.00
56038;BME280;41907;47.848;9.000;2023-11-21T01:08:49;95273.72;;;7.82;100.00
56038;BME280;41907;47.848;9.000;2023-11-21T01:11:15;95277.63;;;7.84;100.00
56038;BME280;41907;47.848;9.000;2023-11-21T01:13:40;95269.66;;;7.84;100.00
56038;BME280;41907;47.848;9.000;2023-11-21T01:16:06;95268.53;;;7.77;100.00
56038;BME280;41907;47.848;9.000;2023-11-21T01:18:32;95267.97;;;7.66;100.00
56038;BME280;41907;47.848;9.000;2023-11-21T01:20:58;95273.41;;;7.61;100.00
56038;BME280;41907;47.848;9.000;2023-11-21T01:23:25;95276.94;;;7.57;100.00
56038;BME280;41907;47.848;9.000;2023-11-21T01:25:52;95272.41;;;7.57;100.00
56038;BME280;41907;47.848;9.000;2023-11-21T01:28:17;95280.66;;;7.56;100.00
56038;BME280;41907;47.848;9.000;2023-11-21T01:30:43;95280.56;;;7.61;100.00
56038;BME280;41907;47.848;9.000;2023-11-21T01:33:09;95280.38;;;7.57;100.00
56038;BME280;41907;47.848;9.000;2023-11-21T01:35:35;95285.59;;;7.48;100.00
56038;BME280;41907;47.848;9.000;2023-11-21T01:38:01;95286.03;;;7.42;100.00
56038;BME280;41907;47.848;9.000;2023-11-21T01:40:26;95281.91;;;7.36;100.00
56038;BME280;41907;47.848;9.000;2023-11-21T01:42:53;95280.94;;;7.32;100.00
56038;BME280;41907;47.848;9.000;2023-11-21T01:45:18;95272.47;;;7.43;100.00
56038;BME280;41907;47.848;9.000;2023-11-21T01:47:44;95284.31;;;7.46;100.00
56038;BME280;41907;47.848;9.000;2023-11-21T01:50:15;95279.34;;;7.44;100.00
56038;BME280;41907;47.848;9.000;2023-11-21T01:52:43;95279.03;;;7.46;100.00
56038;BME280;41907;47.848;9.000;2023-11-21T01:55:09;95282.28;;;7.43;100.00
56038;BME280;41907;47.848;9.000;2023-11-21T01:57:36;95279.63;;;7.43;100.00
56038;BME280;41907;47.848;9.000;2023-11-21T02:00:03;95277.06;;;7.38;100.00
56038;BME280;41907;47.848;9.000;2023-11-21T02:02:49;95268.22;;;7.42;100.00
56038;BME280;41907;47.848;9.000;2023-11-21T02:05:16;95276.56;;;7.50;100.00
56038;BME280;41907;47.848;9.000;2023-11-21T02:07:43;95268.50;;;7.55;100.00
56038;BME280;41907;47.848;9.000;2023-11-21T02:10:09;95268.88;;;7.62;100.00
56038;BME280;41907;47.848;9.000;2023-11-21T02:12:35;95265.59;;;7.65;100.00
56038;BME280;41907;47.848;9.000;2023-11-21T02:15:02;95259.69;;;7.68;100.00
56038;BME280;41907;47.848;9.000;2023-11-21T02:17:30;95263.28;;;7.63;100.00
56038;BME280;41907;47.848;9.000;2023-11-21T02:19:55;95272.13;;;7.59;100.00
56038;BME280;41907;47.848;9.000;2023-11-21T02:22:21;95274.69;;;7.50;100.00
56038;BME280;41907;47.848;9.000;2023-11-21T02:24:47;95264.28;;;7.54;100.00
56038;BME280;41907;47.848;9.000;2023-11-21T02:27:13;95268.69;;;7.58;100.00
56038;BME280;41907;47.848;9.000;2023-11-21T02:29:39;95264.56;;;7.52;100.00
56038;BME280;41907;47.848;9.000;2023-11-21T02:32:04;95263.66;;;7.57;100.00
56038;BME280;41907;47.848;9.000;2023-11-21T02:34:30;95270.06;;;7.56;100.00
56038;BME280;41907;47.848;9.000;2023-11-21T02:36:56;95254.44;;;7.54;100.00
56038;BME280;41907;47.848;9.000;2023-11-21T02:39:22;95257.19;;;7.49;100.00
56038;BME280;41907;47.848;9.000;2023-11-21T02:41:48;95260.06;;;7.53;100.00
56038;BME280;41907;47.848;9.000;2023-11-21T02:44:14;95255.38;;;7.36;100.00
56038;BME280;41907;47.848;9.000;2023-11-21T02:46:39;95270.81;;;7.20;100.00
56038;BME280;41907;47.848;9.000;2023-11-21T02:49:05;95256.59;;;7.16;100.00
56038;BME280;41907;47.848;9.000;2023-11-21T02:51:37;95266.22;;;7.12;100.00
56038;BME280;41907;47.848;9.000;2023-11-21T02:54:05;95265.34;;;7.17;100.00
56038;BME280;41907;47.848;9.000;2023-11-21T02:56:32;95259.34;;;7.11;100.00
56038;BME280;41907;47.848;9.000;2023-11-21T02:58:59;95264.34;;;7.13;100.00
56038;BME280;41907;47.848;9.000;2023-11-21T03:01:25;95252.28;;;7.06;100.00
56038;BME280;41907;47.848;9.000;2023-11-21T03:03:51;95250.81;;;7.00;100.00
56038;BME280;41907;47.848;9.000;2023-11-21T03:06:18;95252.19;;;6.98;100.00
56038;BME280;41907;47.848;9.000;2023-11-21T03:08:43;95251.88;;;7.13;100.00
56038;BME280;41907;47.848;9.000;2023-11-21T03:11:09;95256.19;;;7.09;100.00
56038;BME280;41907;47.848;9.000;2023-11-21T03:13:34;95248.25;;;7.09;100.00
56038;BME280;41907;47.848;9.000;2023-11-21T03:15:59;95249.22;;;7.13;100.00
56038;BME280;41907;47.848;9.000;2023-11-21T03:18:25;95250.50;;;7.02;100.00
56038;BME280;41907;47.848;9.000;2023-11-21T03:20:52;95257.78;;;6.83;100.00
56038;BME280;41907;47.848;9.000;2023-11-21T03:23:17;95246.09;;;6.84;100.00
56038;BME280;41907;47.848;9.000;2023-11-21T03:25:43;95247.19;;;6.83;100.00
56038;BME280;41907;47.848;9.000;2023-11-21T03:28:08;95241.91;;;6.69;100.00
56038;BME280;41907;47.848;9.000;2023-11-21T03:30:34;95252.50;;;6.69;100.00
56038;BME280;41907;47.848;9.000;2023-11-21T03:32:59;95252.19;;;6.70;100.00
56038;BME280;41907;47.848;9.000;2023-11-21T03:35:24;95254.94;;;6.79;100.00
56038;BME280;41907;47.848;9.000;2023-11-21T03:37:50;95259.66;;;6.82;100.00
56038;BME280;41907;47.848;9.000;2023-11-21T03:40:15;95251.03;;;6.77;100.00
56038;BME280;41907;47.848;9.000;2023-11-21T03:42:40;95252.88;;;6.76;100.00
56038;BME280;41907;47.848;9.000;2023-11-21T03:45:07;95249.66;;;6.79;100.00
56038;BME280;41907;47.848;9.000;2023-11-21T03:47:33;95250.81;;;6.73;100.00
56038;BME280;41907;47.848;9.000;2023-11-21T03:49:59;95246.78;;;6.76;100.00
56038;BME280;41907;47.848;9.000;2023-11-21T03:52:24;95250.63;;;6.69;100.00
56038;BME280;41907;47.848;9.000;2023-11-21T03:54:50;95257.09;;;6.77;100.00
56038;BME280;41907;47.848;9.000;2023-11-21T03:57:16;95249.34;;;6.81;100.00
56038;BME280;41907;47.848;9.000;2023-11-21T03:59:42;95254.34;;;6.82;100.00
56038;BME280;41907;47.848;9.000;2023-11-21T04:02:07;95256.22;;;6.82;100.00
56038;BME280;41907;47.848;9.000;2023-11-21T04:04:33;95247.69;;;6.85;100.00
56038;BME280;41907;47.848;9.000;2023-11-21T04:06:59;95251.59;;;6.73;100.00
56038;BME280;41907;47.848;9.000;2023-11-21T04:09:24;95249.16;;;6.77;100.00
56038;BME280;41907;47.848;9.000;2023-11-21T04:11:51;95258.84;;;6.82;100.00
56038;BME280;41907;47.848;9.000;2023-11-21T04:14:16;95261.34;;;6.78;100.00
56038;BME280;41907;47.848;9.000;2023-11-21T04:16:42;95256.13;;;6.87;100.00
56038;BME280;41907;47.848;9.000;2023-11-21T04:19:07;95253.84;;;6.94;100.00
56038;BME280;41907;47.848;9.000;2023-11-21T04:21:35;95261.59;;;6.90;100.00
56038;BME280;41907;47.848;9.000;2023-11-21T04:24:00;95259.84;;;6.99;100.00
56038;BME280;41907;47.848;9.000;2023-11-21T04:26:25;95258.47;;;7.02;100.00
56038;BME280;41907;47.848;9.000;2023-11-21T04:28:50;95258.84;;;7.09;100.00
56038;BME280;41907;47.848;9.000;2023-11-21T04:31:16;95249.34;;;6.94;100.00
56038;BME280;41907;47.848;9.000;2023-11-21T04:33:41;95253.94;;;7.02;100.00
56038;BME280;41907;47.848;9.000;2023-11-21T04:36:07;95254.94;;;7.06;100.00
56038;BME280;41907;47.848;9.000;2023-11-21T04:38:32;95258.47;;;7.02;100.00
56038;BME280;41907;47.848;9.000;2023-11-21T04:40:58;95260.03;;;7.03;100.00
56038;BME280;41907;47.848;9.000;2023-11-21T04:43:23;95258.47;;;7.16;100.00
56038;BME280;41907;47.848;9.000;2023-11-21T04:45:48;95251.75;;;7.18;100.00
56038;BME280;41907;47.848;9.000;2023-11-21T04:48:14;95251.75;;;7.18;100.00
56038;BME280;41907;47.848;9.000;2023-11-21T04:50:39;95258.63;;;7.19;100.00
56038;BME280;41907;47.848;9.000;2023-11-21T04:53:04;95261.13;;;7.16;100.00
56038;BME280;41907;47.848;9.000;2023-11-21T04:55:30;95260.69;;;7.22;100.00
56038;BME280;41907;47.848;9.000;2023-11-21T04:57:56;95268.25;;;7.29;100.00
56038;BME280;41907;47.848;9.000;2023-11-21T05:00:21;95268.88;;;7.26;100.00
56038;BME280;41907;47.848;9.000;2023-11-21T05:02:47;95264.34;;;7.26;100.00
56038;BME280;41907;47.848;9.000;2023-11-21T05:05:12;95271.97;;;7.28;100.00
56038;BME280;41907;47.848;9.000;2023-11-21T05:07:39;95263.56;;;7.26;100.00
56038;BME280;41907;47.848;9.000;2023-11-21T05:10:05;95270.72;;;7.25;100.00
56038;BME280;41907;47.848;9.000;2023-11-21T05:12:36;95269.94;;;7.25;100.00
56038;BME280;41907;47.848;9.000;2023-11-21T05:15:04;95270.66;;;7.17;100.00
56038;BME280;41907;47.848;9.000;2023-11-21T05:17:33;95264.84;;;7.15;100.00
56038;BME280;41907;47.848;9.000;2023-11-21T05:19:59;95263.34;;;7.08;100.00
56038;BME280;41907;47.848;9.000;2023-11-21T05:22:26;95270.22;;;7.09;100.00
56038;BME280;41907;47.848;9.000;2023-11-21T05:24:52;95267.13;;;7.07;100.00
56038;BME280;41907;47.848;9.000;2023-11-21T05:27:18;95265.72;;;7.10;100.00
56038;BME280;41907;47.848;9.000;2023-11-21T05:29:43;95269.28;;;7.05;100.00
56038;BME280;41907;47.848;9.000;2023-11-21T05:32:08;95268.41;;;6.96;100.00
56038;BME280;41907;47.848;9.000;2023-11-21T05:34:34;95268.41;;;6.96;100.00
56038;BME280;41907;47.848;9.000;2023-11-21T05:36:59;95268.41;;;6.96;100.00
56038;BME280;41907;47.848;9.000;2023-11-21T05:39:25;95271.84;;;6.97;100.00
56038;BME280;41907;47.848;9.000;2023-11-21T05:41:50;95276.25;;;6.88;100.00
56038;BME280;41907;47.848;9.000;2023-11-21T05:44:15;95286.34;;;6.99;100.00
56038;BME280;41907;47.848;9.000;2023-11-21T05:46:41;95284.19;;;7.01;100.00
56038;BME280;41907;47.848;9.000;2023-11-21T05:49:08;95291.28;;;6.79;100.00
56038;BME280;41907;47.848;9.000;2023-11-21T05:51:33;95293.22;;;6.87;100.00
56038;BME280;41907;47.848;9.000;2023-11-21T05:53:59;95291.97;;;6.98;100.00
56038;BME280;41907;47.848;9.000;2023-11-21T05:56:24;95294.31;;;6.99;100.00
56038;BME280;41907;47.848;9.000;2023-11-21T05:58:50;95302.06;;;6.82;100.00
56038;BME280;41907;47.848;9.000;2023-11-21T06:01:16;95296.19;;;6.85;100.00
56038;BME280;41907;47.848;9.000;2023-11-21T06:03:41;95307.66;;;6.94;100.00
56038;BME280;41907;47.848;9.000;2023-11-21T06:06:07;95306.09;;;6.93;100.00
56038;BME280;41907;47.848;9.000;2023-11-21T06:08:32;95308.16;;;6.96;100.00
56038;BME280;41907;47.848;9.000;2023-11-21T06:10:58;95307.19;;;7.06;100.00
56038;BME280;41907;47.848;9.000;2023-11-21T06:13:23;95315.13;;;7.06;100.00
56038;BME280;41907;47.848;9.000;2023-11-21T06:15:50;95315.03;;;7.11;100.00
56038;BME280;41907;47.848;9.000;2023-11-21T06:18:16;95314.72;;;7.13;100.00
56038;BME280;41907;47.848;9.000;2023-11-21T06:20:45;95323.97;;;7.15;100.00
56038;BME280;41907;47.848;9.000;2023-11-21T06:23:10;95330.25;;;7.05;100.00
56038;BME280;41907;47.848;9.000;2023-11-21T06:25:36;95338.72;;;7.07;100.00
56038;BME280;41907;47.848;9.000;2023-11-21T06:28:02;95339.19;;;7.09;100.00
56038;BME280;41907;47.848;9.000;2023-11-21T06:30:27;95339.47;;;7.08;100.00
56038;BME280;41907;47.848;9.000;2023-11-21T06:32:54;95331.94;;;7.15;100.00
56038;BME280;41907;47.848;9.000;2023-11-21T06:35:21;95335.56;;;7.05;100.00
56038;BME280;41907;47.848;9.000;2023-11-21T06:37:46;95342.53;;;7.15;100.00
56038;BME280;41907;47.848;9.000;2023-11-21T06:40:17;95340.25;;;7.08;100.00
56038;BME280;41907;47.848;9.000;2023-11-21T06:42:43;95348.53;;;7.07;100.00
56038;BME280;41907;47.848;9.000;2023-11-21T06:45:10;95343.91;;;7.13;100.00
56038;BME280;41907;47.848;9.000;2023-11-21T06:47:36;95345.38;;;7.19;100.00
56038;BME280;41907;47.848;9.000;2023-11-21T06:50:03;95345.66;;;7.17;100.00
56038;BME280;41907;47.848;9.000;2023-11-21T06:52:29;95355.09;;;7.23;100.00
56038;BME280;41907;47.848;9.000;2023-11-21T06:54:54;95362.84;;;7.20;100.00
56038;BME280;41907;47.848;9.000;2023-11-21T06:57:20;95360.59;;;7.27;100.00
56038;BME280;41907;47.848;9.000;2023-11-21T06:59:45;95356.84;;;7.28;100.00
56038;BME280;41907;47.848;9.000;2023-11-21T07:02:10;95353.41;;;7.27;100.00
56038;BME280;41907;47.848;9.000;2023-11-21T07:04:36;95342.13;;;7.22;100.00
56038;BME280;41907;47.848;9.000;2023-11-21T07:07:02;95356.59;;;7.16;100.00
56038;BME280;41907;47.848;9.000;2023-11-21T07:09:28;95360.78;;;7.03;100.00
56038;BME280;41907;47.848;9.000;2023-11-21T07:11:54;95358.75;;;7.14;100.00
56038;BME280;41907;47.848;9.000;2023-11-21T07:14:20;95364.63;;;7.24;100.00
56038;BME280;41907;47.848;9.000;2023-11-21T07:16:46;95357.47;;;7.25;100.00
56038;BME280;41907;47.848;9.000;2023-11-21T07:19:12;95358.94;;;7.31;100.00
56038;BME280;41907;47.848;9.000;2023-11-21T07:21:38;95365.81;;;7.04;100.00
56038;BME280;41907;47.848;9.000;2023-11-21T07:24:05;95360.97;;;6.93;100.00
56038;BME280;41907;47.848;9.000;2023-11-21T07:26:32;95371.91;;;7.05;100.00
56038;BME280;41907;47.848;9.000;2023-11-21T07:28:58;95373.75;;;7.18;100.00
56038;BME280;41907;47.848;9.000;2023-11-21T07:31:24;95376.50;;;7.27;100.00
56038;BME280;41907;47.848;9.000;2023-11-21T07:33:50;95377.41;;;7.36;100.00
56038;BME280;41907;47.848;9.000;2023-11-21T07:36:16;95372.78;;;7.41;100.00
56038;BME280;41907;47.848;9.000;2023-11-21T07:38:43;95374.53;;;7.46;100.00
56038;BME280;41907;47.848;9.000;2023-11-21T07:41:10;95378.06;;;7.55;100.00
56038;BME280;41907;47.848;9.000;2023-11-21T07:43:36;95374.53;;;7.60;100.00
56038;BME280;41907;47.848;9.000;2023-11-21T07:46:02;95375.81;;;7.62;100.00
56038;BME280;41907;47.848;9.000;2023-11-21T07:48:32;95377.19;;;7.60;100.00
56038;BME280;41907;47.848;9.000;2023-11-21T07:50:58;95374.41;;;7.65;100.00
56038;BME280;41907;47.848;9.000;2023-11-21T07:53:27;95377.84;;;7.65;100.00
56038;BME280;41907;47.848;9.000;2023-11-21T07:55:55;95383.16;;;7.79;100.00
56038;BME280;41907;47.848;9.000;2023-11-21T07:58:20;95384.81;;;7.89;100.00
56038;BME280;41907;47.848;9.000;2023-11-21T08:00:46;95376.03;;;8.02;100.00
56038;BME280;41907;47.848;9.000;2023-11-21T08:03:13;95385.66;;;8.11;100.00
56038;BME280;41907;47.848;9.000;2023-11-21T08:05:38;95372.84;;;8.13;100.00
56038;BME280;41907;47.848;9.000;2023-11-21T08:08:04;95374.41;;;8.14;100.00
56038;BME280;41907;47.848;9.000;2023-11-21T08:10:29;95387.41;;;8.16;100.00
56038;BME280;41907;47.848;9.000;2023-11-21T08:12:55;95377.69;;;8.11;100.00
56038;BME280;41907;47.848;9.000;2023-11-21T08:15:20;95377.97;;;8.10;100.00
56038;BME280;41907;47.848;9.000;2023-11-21T08:17:46;95377.50;;;8.08;100.00
56038;BME280;41907;47.848;9.000;2023-11-21T08:20:12;95380.16;;;8.08;100.00
56038;BME280;41907;47.848;9.000;2023-11-21T08:22:41;95385.75;;;8.06;100.00
56038;BME280;41907;47.848;9.000;2023-11-21T08:25:07;95384.91;;;7.97;100.00
56038;BME280;41907;47.848;9.000;2023-11-21T08:27:33;95385.09;;;8.01;100.00
56038;BME280;41907;47.848;9.000;2023-11-21T08:30:00;95384.22;;;7.92;100.00
56038;BME280;41907;47.848;9.000;2023-11-21T08:32:25;95382.25;;;7.97;100.00
56038;BME280;41907;47.848;9.000;2023-11-21T08:34:50;95380.88;;;8.00;100.00
56038;BME280;41907;47.848;9.000;2023-11-21T08:37:16;95383.41;;;8.05;100.00
56038;BME280;41907;47.848;9.000;2023-11-21T08:39:44;95384.38;;;8.09;100.00
56038;BME280;41907;47.848;9.000;2023-11-21T08:42:09;95391.44;;;8.13;100.00
56038;BME280;41907;47.848;9.000;2023-11-21T08:44:34;95383.06;;;8.20;100.00
56038;BME280;41907;47.848;9.000;2023-11-21T08:47:00;95386.50;;;8.20;100.00
56038;BME280;41907;47.848;9.000;2023-11-21T08:49:25;95393.56;;;8.25;100.00
56038;BME280;41907;47.848;9.000;2023-11-21T08:51:53;95387.56;;;8.33;100.00
56038;BME280;41907;47.848;9.000;2023-11-21T08:54:20;95393.13;;;8.45;100.00
56038;BME280;41907;47.848;9.000;2023-11-21T08:56:46;95392.94;;;8.42;100.00
56038;BME280;41907;47.848;9.000;2023-11-21T08:59:11;95392.53;;;8.48;100.00
56038;BME280;41907;47.848;9.000;2023-11-21T09:01:40;95396.94;;;8.53;100.00
56038;BME280;41907;47.848;9.000;2023-11-21T09:04:06;95394.88;;;8.50;100.00
56038;BME280;41907;47.848;9.000;2023-11-21T09:06:31;95399.66;;;8.62;100.00
56038;BME280;41907;47.848;9.000;2023-11-21T09:08:56;95407.94;;;8.60;100.00
56038;BME280;41907;47.848;9.000;2023-11-21T09:11:22;95399.41;;;8.72;100.00
56038;BME280;41907;47.848;9.000;2023-11-21T09:13:48;95412.16;;;8.83;100.00
56038;BME280;41907;47.848;9.000;2023-11-21T09:16:14;95414.16;;;9.09;100.00
56038;BME280;41907;47.848;9.000;2023-11-21T09:18:41;95418.38;;;9.32;100.00
56038;BME280;41907;47.848;9.000;2023-11-21T09:21:06;95418.38;;;9.32;100.00
56038;BME280;41907;47.848;9.000;2023-11-21T09:23:31;95424.22;;;9.43;100.00
56038;BME280;41907;47.848;9.000;2023-11-21T09:25:57;95426.81;;;9.82;100.00
56038;BME280;41907;47.848;9.000;2023-11-21T09:28:25;95423.03;;;10.49;100.00
56038;BME280;41907;47.848;9.000;2023-11-21T09:30:52;95424.34;;;11.62;100.00
56038;BME280;41907;47.848;9.000;2023-11-21T09:33:18;95427.91;;;12.12;100.00
56038;BME280;41907;47.848;9.000;2023-11-21T09:35:43;95428.38;;;11.85;100.00
56038;BME280;41907;47.848;9.000;2023-11-21T09:38:09;95424.81;;;11.26;100.00
56038;BME280;41907;47.848;9.000;2023-11-21T09:40:36;95423.00;;;10.92;100.00
56038;BME280;41907;47.848;9.000;2023-11-21T09:43:06;95427.09;;;10.80;100.00
56038;BME280;41907;47.848;9.000;2023-11-21T09:45:38;95431.97;;;10.35;100.00
56038;BME280;41907;47.848;9.000;2023-11-21T09:48:05;95433.25;;;10.38;100.00
56038;BME280;41907;47.848;9.000;2023-11-21T09:50:32;95429.16;;;10.40;100.00
56038;BME280;41907;47.848;9.000;2023-11-21T09:55:27;95425.50;;;10.19;100.00
56038;BME280;41907;47.848;9.000;2023-11-21T09:57:56;95417.16;;;10.03;100.00
56038;BME280;41907;47.848;9.000;2023-11-21T10:00:22;95423.06;;;9.83;100.00
56038;BME280;41907;47.848;9.000;2023-11-21T10:02:49;95424.94;;;9.83;100.00
56038;BME280;41907;47.848;9.000;2023-11-21T10:05:15;95424.53;;;9.98;100.00
56038;BME280;41907;47.848;9.000;2023-11-21T10:07:43;95434.84;;;9.91;100.00
56038;BME280;41907;47.848;9.000;2023-11-21T10:10:10;95425.94;;;9.95;100.00
56038;BME280;41907;47.848;9.000;2023-11-21T10:12:35;95431.53;;;9.85;100.00
56038;BME280;41907;47.848;9.000;2023-11-21T10:15:02;95422.00;;;9.93;100.00
56038;BME280;41907;47.848;9.000;2023-11-21T10:17:31;95424.19;;;9.91;100.00
56038;BME280;41907;47.848;9.000;2023-11-21T10:20:04;95429.19;;;9.84;100.00
56038;BME280;41907;47.848;9.000;2023-11-21T10:22:38;95428.59;;;9.95;100.00
56038;BME280;41907;47.848;9.000;2023-11-21T10:25:04;95425.34;;;10.16;100.00
56038;BME280;41907;47.848;9.000;2023-11-21T10:27:33;95416.13;;;10.39;100.00
56038;BME280;41907;47.848;9.000;2023-11-21T10:30:01;95420.34;;;10.57;100.00
56038;BME280;41907;47.848;9.000;2023-11-21T10:32:29;95415.63;;;10.89;100.00
56038;BME280;41907;47.848;9.000;2023-11-21T10:35:01;95411.84;;;10.98;100.00
56038;BME280;41907;47.848;9.000;2023-11-21T10:37:31;95421.56;;;11.11;100.00
56038;BME280;41907;47.848;9.000;2023-11-21T10:39:58;95418.41;;;11.09;100.00
56038;BME280;41907;47.848;9.000;2023-11-21T10:42:24;95415.16;;;11.42;100.00
56038;BME280;41907;47.848;9.000;2023-11-21T10:44:49;95415.69;;;12.86;96.90
56038;BME280;41907;47.848;9.000;2023-11-21T10:47:16;95416.28;;;13.03;94.91
56038;BME280;41907;47.848;9.000;2023-11-21T10:49:44;95407.78;;;14.44;86.21
56038;BME280;41907;47.848;9.000;2023-11-21T10:52:09;95420.34;;;13.79;83.52
56038;BME280;41907;47.848;9.000;2023-11-21T10:54:42;95417.53;;;13.27;86.93
56038;BME280;41907;47.848;9.000;2023-11-21T10:57:08;95419.38;;;12.40;90.86
56038;BME280;41907;47.848;9.000;2023-11-21T10:59:34;95416.81;;;12.22;91.75
56038;BME280;41907;47.848;9.000;2023-11-21T11:02:01;95421.59;;;12.38;92.28
56038;BME280;41907;47.848;9.000;2023-11-21T11:04:28;95410.44;;;12.56;93.07
56038;BME280;41907;47.848;9.000;2023-11-21T11:06:56;95410.09;;;13.57;87.19
56038;BME280;41907;47.848;9.000;2023-11-21T11:09:22;95414.91;;;13.75;84.95
56038;BME280;41907;47.848;9.000;2023-11-21T11:11:48;95414.97;;;14.80;80.71
56038;BME280;41907;47.848;9.000;2023-11-21T11:14:14;95410.00;;;16.70;71.06
56038;BME280;41907;47.848;9.000;2023-11-21T11:16:40;95405.00;;;18.25;60.49
56038;BME280;41907;47.848;9.000;2023-11-21T11:19:09;95398.78;;;17.49;60.25
56038;BME280;41907;47.848;9.000;2023-11-21T11:25:10;95399.75;;;19.29;53.89
56038;BME280;41907;47.848;9.000;2023-11-21T11:27:26;95398.03;;;19.95;49.45
56038;BME280;41907;47.848;9.000;2023-11-21T11:35:24;95397.13;;;20.31;50.03
56038;BME280;41907;47.848;9.000;2023-11-21T11:37:51;95406.31;;;19.65;50.37
56038;BME280;41907;47.848;9.000;2023-11-21T11:40:16;95402.81;;;17.81;54.46
56038;BME280;41907;47.848;9.000;2023-11-21T11:43:01;95409.31;;;16.04;63.04
56038;BME280;41907;47.848;9.000;2023-11-21T11:45:34;95403.78;;;15.06;69.76
56038;BME280;41907;47.848;9.000;2023-11-21T11:48:01;95412.59;;;14.38;71.41
56038;BME280;41907;47.848;9.000;2023-11-21T11:50:26;95414.56;;;13.77;74.37
56038;BME280;41907;47.848;9.000;2023-11-21T11:52:53;95414.16;;;13.18;78.65
56038;BME280;41907;47.848;9.000;2023-11-21T11:55:24;95408.28;;;12.71;83.42
56038;BME280;41907;47.848;9.000;2023-11-21T11:57:51;95415.34;;;12.34;89.13
56038;BME280;41907;47.848;9.000;2023-11-21T12:02:53;95414.28;;;12.05;89.10
56038;BME280;41907;47.848;9.000;2023-11-21T12:05:20;95410.72;;;11.92;91.45
56038;BME280;41907;47.848;9.000;2023-11-21T12:10:19;95412.44;;;11.59;95.57
56038;BME280;41907;47.848;9.000;2023-11-21T12:12:46;95419.47;;;11.64;97.26
56038;BME280;41907;47.848;9.000;2023-11-21T12:15:12;95412.28;;;11.55;93.82
56038;BME280;41907;47.848;9.000;2023-11-21T12:17:39;95413.00;;;11.73;92.18
56038;BME280;41907;47.848;9.000;2023-11-21T12:20:05;95408.72;;;11.81;94.84
56038;BME280;41907;47.848;9.000;2023-11-21T12:22:42;95406.84;;;12.73;89.18
56038;BME280;41907;47.848;9.000;2023-11-21T12:25:08;95414.72;;;12.70;88.31
56038;BME280;41907;47.848;9.000;2023-11-21T12:27:33;95407.03;;;12.68;87.26
56038;BME280;41907;47.848;9.000;2023-11-21T12:29:58;95413.78;;;12.53;87.05
56038;BME280;41907;47.848;9.000;2023-11-21T12:32:24;95415.47;;;12.16;89.88
56038;BME280;41907;47.848;9.000;2023-11-21T12:34:50;95423.25;;;11.63;94.37
56038;BME280;41907;47.848;9.000;2023-11-21T12:37:16;95423.38;;;11.28;99.78
56038;BME280;41907;47.848;9.000;2023-11-21T12:39:42;95421.56;;;11.03;99.42
56038;BME280;41907;47.848;9.000;2023-11-21T12:42:07;95428.19;;;10.79;100.00
56038;BME280;41907;47.848;9.000;2023-11-21T12:44:33;95424.13;;;10.65;100.00
56038;BME280;41907;47.848;9.000;2023-11-21T12:46:59;95417.38;;;10.59;100.00
56038;BME280;41907;47.848;9.000;2023-11-21T12:49:26;95427.44;;;10.53;100.00
56038;BME280;41907;47.848;9.000;2023-11-21T12:51:53;95425.06;;;10.52;100.00
56038;BME280;41907;47.848;9.000;2023-11-21T12:54:19;95424.28;;;10.42;100.00
56038;BME280;41907;47.848;9.000;2023-11-21T12:56:45;95433.84;;;10.43;100.00
56038;BME280;41907;47.848;9.000;2023-11-21T12:59:12;95429.00;;;10.46;100.00
56038;BME280;41907;47.848;9.000;2023-11-21T13:01:42;95432.75;;;10.53;100.00
56038;BME280;41907;47.848;9.000;2023-11-21T13:04:07;95440.59;;;10.50;100.00
56038;BME280;41907;47.848;9.000;2023-11-21T13:06:36;95437.00;;;10.54;100.00
56038;BME280;41907;47.848;9.000;2023-11-21T13:09:06;95437.91;;;10.67;100.00
56038;BME280;41907;47.848;9.000;2023-11-21T13:11:36;95432.44;;;10.72;100.00